sensor_id;sensor_type;location;lat;lon;timestamp;temperature;humidity
41644;DHT22;44236;48.098;11.582;2023-04-06T00:02:11;19.50;40.70
41644;DHT22;44236;48.098;11.582;2023-04-06T00:04:37;19.40;40.70
41644;DHT22;44236;48.098;11.582;2023-04-06T00:07:03;19.50;41.00
41644;DHT22;44236;48.098;11.582;2023-04-06T00:09:28;19.40;40.90
41644;DHT22;44236;48.098;11.582;2023-04-06T00:11:54;19.40;40.90
41644;DHT22;44236;48.098;11.582;2023-04-06T00:14:20;19.50;41.20
41644;DHT22;44236;48.098;11.582;2023-04-06T00:16:46;19.40;41.30
41644;DHT22;44236;48.098;11.582;2023-04-06T00:19:11;19.40;41.20
41644;DHT22;44236;48.098;11.582;2023-04-06T00:21:37;19.40;41.10
41644;DHT22;44236;48.098;11.582;2023-04-06T00:24:02;19.40;41.30
41644;DHT22;44236;48.098;11.582;2023-04-06T00:26:29;19.40;41.10
41644;DHT22;44236;48.098;11.582;2023-04-06T00:28:55;19.30;41.30
41644;DHT22;44236;48.098;11.582;2023-04-06T00:31:20;19.30;41.20
41644;DHT22;44236;48.098;11.582;2023-04-06T00:33:49;19.30;41.30
41644;DHT22;44236;48.098;11.582;2023-04-06T00:36:15;19.30;41.20
41644;DHT22;44236;48.098;11.582;2023-04-06T00:38:40;19.30;41.20
41644;DHT22;44236;48.098;11.582;2023-04-06T00:41:06;19.30;41.30
41644;DHT22;44236;48.098;11.582;2023-04-06T00:43:32;19.20;41.10
41644;DHT22;44236;48.098;11.582;2023-04-06T00:45:58;19.20;41.40
41644;DHT22;44236;48.098;11.582;2023-04-06T00:48:23;19.30;41.30
41644;DHT22;44236;48.098;11.582;2023-04-06T00:50:49;19.30;41.20
41644;DHT22;44236;48.098;11.582;2023-04-06T00:53:15;19.20;41.10
41644;DHT22;44236;48.098;11.582;2023-04-06T00:55:40;19.20;41.20
41644;DHT22;44236;48.098;11.582;2023-04-06T00:58:06;19.20;41.00
41644;DHT22;44236;48.098;11.582;2023-04-06T01:00:32;19.20;41.10
41644;DHT22;44236;48.098;11.582;2023-04-06T01:02:58;19.20;41.30
41644;DHT22;44236;48.098;11.582;2023-04-06T01:05:24;19.20;41.20
41644;DHT22;44236;48.098;11.582;2023-04-06T01:07:50;19.20;41.20
41644;DHT22;44236;48.098;11.582;2023-04-06T01:10:26;19.10;41.20
41644;DHT22;44236;48.098;11.582;2023-04-06T01:12:52;19.20;41.20
41644;DHT22;44236;48.098;11.582;2023-04-06T01:15:18;19.20;41.20
41644;DHT22;44236;48.098;11.582;2023-04-06T01:17:45;19.10;41.30
41644;DHT22;44236;48.098;11.582;2023-04-06T01:20:10;19.20;41.10
41644;DHT22;44236;48.098;11.582;2023-04-06T01:22:36;19.10;41.10
41644;DHT22;44236;48.098;11.582;2023-04-06T01:25:02;19.10;41.30
41644;DHT22;44236;48.098;11.582;2023-04-06T01:27:27;19.10;41.40
41644;DHT22;44236;48.098;11.582;2023-04-06T01:29:55;19.10;41.30
41644;DHT22;44236;48.098;11.582;2023-04-06T01:32:21;19.10;41.30
41644;DHT22;44236;48.098;11.582;2023-04-06T01:34:46;19.10;41.30
41644;DHT22;44236;48.098;11.582;2023-04-06T01:37:15;19.10;41.20
41644;DHT22;44236;48.098;11.582;2023-04-06T01:39:42;19.00;41.30
41644;DHT22;44236;48.098;11.582;2023-04-06T01:42:08;19.00;41.30
41644;DHT22;44236;48.098;11.582;2023-04-06T01:44:34;19.10;41.20
41644;DHT22;44236;48.098;11.582;2023-04-06T01:47:00;19.10;41.30
41644;DHT22;44236;48.098;11.582;2023-04-06T01:49:25;19.00;41.20
41644;DHT22;44236;48.098;11.582;2023-04-06T01:51:51;19.00;41.20
41644;DHT22;44236;48.098;11.582;2023-04-06T01:54:17;19.00;41.30
41644;DHT22;44236;48.098;11.582;2023-04-06T01:56:43;19.00;41.20
41644;DHT22;44236;48.098;11.582;2023-04-06T01:59:09;19.00;41.10
41644;DHT22;44236;48.098;11.582;2023-04-06T02:01:34;19.00;41.20
41644;DHT22;44236;48.098;11.582;2023-04-06T02:04:03;19.00;41.20
41644;DHT22;44236;48.098;11.582;2023-04-06T02:06:28;19.00;41.30
41644;DHT22;44236;48.098;11.582;2023-04-06T02:08:55;19.00;41.20
41644;DHT22;44236;48.098;11.582;2023-04-06T02:11:21;19.00;41.20
41644;DHT22;44236;48.098;11.582;2023-04-06T02:13:46;19.00;41.20
41644;DHT22;44236;48.098;11.582;2023-04-06T02:16:12;19.00;41.20
41644;DHT22;44236;48.098;11.582;2023-04-06T02:18:41;19.00;41.20
41644;DHT22;44236;48.098;11.582;2023-04-06T02:21:10;19.00;41.20
41644;DHT22;44236;48.098;11.582;2023-04-06T02:23:35;19.00;41.20
41644;DHT22;44236;48.098;11.582;2023-04-06T02:26:01;19.00;41.30
41644;DHT22;44236;48.098;11.582;2023-04-06T02:28:27;19.00;41.20
41644;DHT22;44236;48.098;11.582;2023-04-06T02:30:52;19.00;41.20
41644;DHT22;44236;48.098;11.582;2023-04-06T02:33:18;19.00;41.30
41644;DHT22;44236;48.098;11.582;2023-04-06T02:35:44;19.00;41.30
41644;DHT22;44236;48.098;11.582;2023-04-06T02:38:11;18.90;41.20
41644;DHT22;44236;48.098;11.582;2023-04-06T02:40:36;18.90;41.10
41644;DHT22;44236;48.098;11.582;2023-04-06T02:43:02;18.90;41.10
41644;DHT22;44236;48.098;11.582;2023-04-06T02:45:28;18.90;41.20
41644;DHT22;44236;48.098;11.582;2023-04-06T02:47:53;18.90;41.10
41644;DHT22;44236;48.098;11.582;2023-04-06T02:50:19;18.90;41.10
41644;DHT22;44236;48.098;11.582;2023-04-06T02:52:44;18.90;41.00
41644;DHT22;44236;48.098;11.582;2023-04-06T02:55:10;18.90;41.10
41644;DHT22;44236;48.098;11.582;2023-04-06T02:57:36;18.90;41.20
41644;DHT22;44236;48.098;11.582;2023-04-06T03:00:02;18.90;41.20
41644;DHT22;44236;48.098;11.582;2023-04-06T03:02:27;18.90;41.10
41644;DHT22;44236;48.098;11.582;2023-04-06T03:04:53;18.90;41.10
41644;DHT22;44236;48.098;11.582;2023-04-06T03:07:19;18.90;41.10
41644;DHT22;44236;48.098;11.582;2023-04-06T03:09:44;18.90;41.10
41644;DHT22;44236;48.098;11.582;2023-04-06T03:12:10;18.90;41.10
41644;DHT22;44236;48.098;11.582;2023-04-06T03:14:36;18.90;41.00
41644;DHT22;44236;48.098;11.582;2023-04-06T03:17:01;18.90;41.10
41644;DHT22;44236;48.098;11.582;2023-04-06T03:19:27;18.90;41.10
41644;DHT22;44236;48.098;11.582;2023-04-06T03:21:53;18.90;41.00
41644;DHT22;44236;48.098;11.582;2023-04-06T03:24:18;18.90;41.10
41644;DHT22;44236;48.098;11.582;2023-04-06T03:26:44;18.90;41.00
41644;DHT22;44236;48.098;11.582;2023-04-06T03:29:10;18.80;40.80
41644;DHT22;44236;48.098;11.582;2023-04-06T03:31:35;18.90;40.90
41644;DHT22;44236;48.098;11.582;2023-04-06T03:34:01;18.80;40.90
41644;DHT22;44236;48.098;11.582;2023-04-06T03:36:27;18.80;40.80
41644;DHT22;44236;48.098;11.582;2023-04-06T03:38:52;18.80;40.90
41644;DHT22;44236;48.098;11.582;2023-04-06T03:41:19;18.80;40.80
41644;DHT22;44236;48.098;11.582;2023-04-06T03:43:45;18.80;40.80
41644;DHT22;44236;48.098;11.582;2023-04-06T03:46:11;18.80;41.00
41644;DHT22;44236;48.098;11.582;2023-04-06T03:48:36;18.80;40.90
41644;DHT22;44236;48.098;11.582;2023-04-06T03:51:02;18.90;40.90
41644;DHT22;44236;48.098;11.582;2023-04-06T03:53:27;18.80;40.80
41644;DHT22;44236;48.098;11.582;2023-04-06T03:55:53;18.80;40.90
41644;DHT22;44236;48.098;11.582;2023-04-06T03:58:19;18.80;40.70
41644;DHT22;44236;48.098;11.582;2023-04-06T04:00:47;18.80;40.60
41644;DHT22;44236;48.098;11.582;2023-04-06T04:03:13;18.80;40.70
41644;DHT22;44236;48.098;11.582;2023-04-06T04:05:38;18.80;40.70
41644;DHT22;44236;48.098;11.582;2023-04-06T04:08:04;18.80;40.70
41644;DHT22;44236;48.098;11.582;2023-04-06T04:10:30;18.80;40.70
41644;DHT22;44236;48.098;11.582;2023-04-06T04:12:55;18.70;40.80
41644;DHT22;44236;48.098;11.582;2023-04-06T04:15:21;18.80;40.70
41644;DHT22;44236;48.098;11.582;2023-04-06T04:17:46;18.70;40.60
41644;DHT22;44236;48.098;11.582;2023-04-06T04:20:15;18.70;40.70
41644;DHT22;44236;48.098;11.582;2023-04-06T04:22:41;18.70;40.50
41644;DHT22;44236;48.098;11.582;2023-04-06T04:25:07;18.70;40.70
41644;DHT22;44236;48.098;11.582;2023-04-06T04:27:33;18.70;40.60
41644;DHT22;44236;48.098;11.582;2023-04-06T04:29:59;18.70;40.50
41644;DHT22;44236;48.098;11.582;2023-04-06T04:32:24;18.70;40.50
41644;DHT22;44236;48.098;11.582;2023-04-06T04:34:53;18.70;40.50
41644;DHT22;44236;48.098;11.582;2023-04-06T04:37:18;18.70;40.60
41644;DHT22;44236;48.098;11.582;2023-04-06T04:39:45;18.70;40.50
41644;DHT22;44236;48.098;11.582;2023-04-06T04:42:10;18.70;40.20
41644;DHT22;44236;48.098;11.582;2023-04-06T04:44:36;18.80;40.20
41644;DHT22;44236;48.098;11.582;2023-04-06T04:47:02;18.70;40.50
41644;DHT22;44236;48.098;11.582;2023-04-06T04:49:28;18.70;40.60
41644;DHT22;44236;48.098;11.582;2023-04-06T04:51:53;18.70;40.70
41644;DHT22;44236;48.098;11.582;2023-04-06T04:54:19;18.70;40.70
41644;DHT22;44236;48.098;11.582;2023-04-06T04:56:45;18.70;40.80
41644;DHT22;44236;48.098;11.582;2023-04-06T04:59:11;18.70;40.70
41644;DHT22;44236;48.098;11.582;2023-04-06T05:01:36;18.70;40.70
41644;DHT22;44236;48.098;11.582;2023-04-06T05:04:02;18.70;40.50
41644;DHT22;44236;48.098;11.582;2023-04-06T05:06:27;18.70;40.50
41644;DHT22;44236;48.098;11.582;2023-04-06T05:08:53;18.70;40.50
41644;DHT22;44236;48.098;11.582;2023-04-06T05:11:19;18.70;40.60
41644;DHT22;44236;48.098;11.582;2023-04-06T05:13:45;18.70;40.50
41644;DHT22;44236;48.098;11.582;2023-04-06T05:16:11;18.70;40.20
41644;DHT22;44236;48.098;11.582;2023-04-06T05:18:36;18.70;40.00
41644;DHT22;44236;48.098;11.582;2023-04-06T05:21:02;18.70;40.00
41644;DHT22;44236;48.098;11.582;2023-04-06T05:23:28;18.80;39.80
41644;DHT22;44236;48.098;11.582;2023-04-06T05:25:53;18.90;39.60
41644;DHT22;44236;48.098;11.582;2023-04-06T05:28:19;18.90;39.80
41644;DHT22;44236;48.098;11.582;2023-04-06T05:30:45;18.90;39.30
41644;DHT22;44236;48.098;11.582;2023-04-06T05:33:11;18.90;39.50
41644;DHT22;44236;48.098;11.582;2023-04-06T05:35:37;18.90;39.80
41644;DHT22;44236;48.098;11.582;2023-04-06T05:38:03;18.90;39.90
41644;DHT22;44236;48.098;11.582;2023-04-06T05:40:28;18.80;39.80
41644;DHT22;44236;48.098;11.582;2023-04-06T05:42:54;18.80;39.80
41644;DHT22;44236;48.098;11.582;2023-04-06T05:45:20;18.80;39.60
41644;DHT22;44236;48.098;11.582;2023-04-06T05:47:46;18.80;39.50
41644;DHT22;44236;48.098;11.582;2023-04-06T05:50:15;18.80;39.60
41644;DHT22;44236;48.098;11.582;2023-04-06T05:52:41;18.80;39.80
41644;DHT22;44236;48.098;11.582;2023-04-06T05:55:11;18.80;39.50
41644;DHT22;44236;48.098;11.582;2023-04-06T05:57:37;18.90;39.60
41644;DHT22;44236;48.098;11.582;2023-04-06T06:00:04;18.80;39.50
41644;DHT22;44236;48.098;11.582;2023-04-06T06:02:31;18.80;39.40
41644;DHT22;44236;48.098;11.582;2023-04-06T06:04:57;18.90;39.20
41644;DHT22;44236;48.098;11.582;2023-04-06T06:07:23;18.80;39.20
41644;DHT22;44236;48.098;11.582;2023-04-06T06:09:49;18.80;39.10
41644;DHT22;44236;48.098;11.582;2023-04-06T06:12:15;18.80;38.80
41644;DHT22;44236;48.098;11.582;2023-04-06T06:14:41;18.80;39.30
41644;DHT22;44236;48.098;11.582;2023-04-06T06:17:07;18.90;38.70
41644;DHT22;44236;48.098;11.582;2023-04-06T06:19:32;18.90;39.60
41644;DHT22;44236;48.098;11.582;2023-04-06T06:21:58;18.90;40.20
41644;DHT22;44236;48.098;11.582;2023-04-06T06:24:25;18.80;39.30
41644;DHT22;44236;48.098;11.582;2023-04-06T06:26:50;18.80;39.60
41644;DHT22;44236;48.098;11.582;2023-04-06T06:29:16;18.80;39.70
41644;DHT22;44236;48.098;11.582;2023-04-06T06:31:42;18.80;39.80
41644;DHT22;44236;48.098;11.582;2023-04-06T06:34:07;18.80;39.80
41644;DHT22;44236;48.098;11.582;2023-04-06T06:36:33;18.80;39.60
41644;DHT22;44236;48.098;11.582;2023-04-06T06:39:00;18.80;39.70
41644;DHT22;44236;48.098;11.582;2023-04-06T06:41:26;18.80;39.70
41644;DHT22;44236;48.098;11.582;2023-04-06T06:43:52;18.80;39.70
41644;DHT22;44236;48.098;11.582;2023-04-06T06:46:17;18.90;39.80
41644;DHT22;44236;48.098;11.582;2023-04-06T06:48:43;18.90;39.80
41644;DHT22;44236;48.098;11.582;2023-04-06T06:51:09;18.90;39.90
41644;DHT22;44236;48.098;11.582;2023-04-06T06:53:35;18.80;39.90
41644;DHT22;44236;48.098;11.582;2023-04-06T06:56:01;18.90;40.00
41644;DHT22;44236;48.098;11.582;2023-04-06T06:58:26;18.80;40.00
41644;DHT22;44236;48.098;11.582;2023-04-06T07:00:58;18.80;40.10
41644;DHT22;44236;48.098;11.582;2023-04-06T07:03:24;18.80;40.10
41644;DHT22;44236;48.098;11.582;2023-04-06T07:05:50;18.80;40.10
41644;DHT22;44236;48.098;11.582;2023-04-06T07:08:23;18.80;40.10
41644;DHT22;44236;48.098;11.582;2023-04-06T07:10:51;18.80;40.00
41644;DHT22;44236;48.098;11.582;2023-04-06T07:13:18;18.90;40.10
41644;DHT22;44236;48.098;11.582;2023-04-06T07:15:48;18.90;40.10
41644;DHT22;44236;48.098;11.582;2023-04-06T07:18:14;18.80;40.10
41644;DHT22;44236;48.098;11.582;2023-04-06T07:20:39;18.80;40.00
41644;DHT22;44236;48.098;11.582;2023-04-06T07:23:07;18.80;40.00
41644;DHT22;44236;48.098;11.582;2023-04-06T07:25:32;18.80;40.00
41644;DHT22;44236;48.098;11.582;2023-04-06T07:27:58;18.80;39.90
41644;DHT22;44236;48.098;11.582;2023-04-06T07:30:24;18.80;40.10
41644;DHT22;44236;48.098;11.582;2023-04-06T07:32:52;18.80;39.80
41644;DHT22;44236;48.098;11.582;2023-04-06T07:35:17;18.80;39.80
41644;DHT22;44236;48.098;11.582;2023-04-06T07:37:43;18.80;39.80
41644;DHT22;44236;48.098;11.582;2023-04-06T07:40:09;18.80;39.80
41644;DHT22;44236;48.098;11.582;2023-04-06T07:42:35;18.90;39.90
41644;DHT22;44236;48.098;11.582;2023-04-06T07:45:00;18.90;39.90
41644;DHT22;44236;48.098;11.582;2023-04-06T07:47:26;18.90;39.70
41644;DHT22;44236;48.098;11.582;2023-04-06T07:49:54;18.90;39.60
41644;DHT22;44236;48.098;11.582;2023-04-06T07:52:20;18.90;39.40
41644;DHT22;44236;48.098;11.582;2023-04-06T07:54:45;19.00;39.60
41644;DHT22;44236;48.098;11.582;2023-04-06T07:57:11;19.00;39.40
41644;DHT22;44236;48.098;11.582;2023-04-06T07:59:36;18.90;39.30
41644;DHT22;44236;48.098;11.582;2023-04-06T08:02:05;19.00;39.50
41644;DHT22;44236;48.098;11.582;2023-04-06T08:04:31;19.00;39.20
41644;DHT22;44236;48.098;11.582;2023-04-06T08:06:57;19.00;39.30
41644;DHT22;44236;48.098;11.582;2023-04-06T08:09:23;19.00;39.00
41644;DHT22;44236;48.098;11.582;2023-04-06T08:11:48;19.10;39.20
41644;DHT22;44236;48.098;11.582;2023-04-06T08:14:14;19.10;39.20
41644;DHT22;44236;48.098;11.582;2023-04-06T08:16:41;19.10;39.20
41644;DHT22;44236;48.098;11.582;2023-04-06T08:19:07;19.10;39.00
41644;DHT22;44236;48.098;11.582;2023-04-06T08:21:35;19.10;39.00
41644;DHT22;44236;48.098;11.582;2023-04-06T08:24:01;19.10;39.40
41644;DHT22;44236;48.098;11.582;2023-04-06T08:26:27;19.10;39.00
41644;DHT22;44236;48.098;11.582;2023-04-06T08:28:53;19.10;39.00
41644;DHT22;44236;48.098;11.582;2023-04-06T08:31:19;19.20;39.30
41644;DHT22;44236;48.098;11.582;2023-04-06T08:33:45;19.20;39.40
41644;DHT22;44236;48.098;11.582;2023-04-06T08:36:12;19.20;39.40
41644;DHT22;44236;48.098;11.582;2023-04-06T08:38:39;19.20;38.80
41644;DHT22;44236;48.098;11.582;2023-04-06T08:41:12;19.30;39.20
41644;DHT22;44236;48.098;11.582;2023-04-06T08:43:49;19.20;39.00
41644;DHT22;44236;48.098;11.582;2023-04-06T08:46:18;19.30;39.00
41644;DHT22;44236;48.098;11.582;2023-04-06T08:48:45;19.20;38.90
41644;DHT22;44236;48.098;11.582;2023-04-06T08:51:11;19.20;39.40
41644;DHT22;44236;48.098;11.582;2023-04-06T08:53:37;19.20;38.80
41644;DHT22;44236;48.098;11.582;2023-04-06T08:56:04;19.20;38.40
41644;DHT22;44236;48.098;11.582;2023-04-06T08:58:35;19.20;39.20
41644;DHT22;44236;48.098;11.582;2023-04-06T09:01:06;19.20;39.30
41644;DHT22;44236;48.098;11.582;2023-04-06T09:03:36;19.00;34.60
41644;DHT22;44236;48.098;11.582;2023-04-06T09:06:03;18.70;34.00
41644;DHT22;44236;48.098;11.582;2023-04-06T09:08:29;18.10;29.50
41644;DHT22;44236;48.098;11.582;2023-04-06T09:10:55;17.90;29.90
41644;DHT22;44236;48.098;11.582;2023-04-06T09:13:21;17.70;29.70
41644;DHT22;44236;48.098;11.582;2023-04-06T09:16:04;17.60;29.20
41644;DHT22;44236;48.098;11.582;2023-04-06T09:18:33;17.40;28.40
41644;DHT22;44236;48.098;11.582;2023-04-06T09:21:03;17.40;28.80
41644;DHT22;44236;48.098;11.582;2023-04-06T09:23:29;17.50;29.10
41644;DHT22;44236;48.098;11.582;2023-04-06T09:26:12;17.60;28.40
41644;DHT22;44236;48.098;11.582;2023-04-06T09:31:07;17.90;31.80
41644;DHT22;44236;48.098;11.582;2023-04-06T09:33:38;18.00;33.10
41644;DHT22;44236;48.098;11.582;2023-04-06T09:36:04;18.10;34.30
41644;DHT22;44236;48.098;11.582;2023-04-06T09:38:30;18.20;34.50
41644;DHT22;44236;48.098;11.582;2023-04-06T09:40:56;18.30;34.90
41644;DHT22;44236;48.098;11.582;2023-04-06T09:43:26;18.40;35.10
41644;DHT22;44236;48.098;11.582;2023-04-06T09:45:53;18.40;35.20
41644;DHT22;44236;48.098;11.582;2023-04-06T09:48:20;18.50;35.30
41644;DHT22;44236;48.098;11.582;2023-04-06T09:50:49;18.50;35.50
41644;DHT22;44236;48.098;11.582;2023-04-06T09:53:19;18.50;35.30
41644;DHT22;44236;48.098;11.582;2023-04-06T09:55:46;18.60;35.70
41644;DHT22;44236;48.098;11.582;2023-04-06T09:58:16;18.60;36.30
41644;DHT22;44236;48.098;11.582;2023-04-06T10:01:03;18.60;36.40
41644;DHT22;44236;48.098;11.582;2023-04-06T10:06:15;18.70;37.00
41644;DHT22;44236;48.098;11.582;2023-04-06T10:08:43;18.70;36.70
41644;DHT22;44236;48.098;11.582;2023-04-06T10:11:12;18.70;37.40
41644;DHT22;44236;48.098;11.582;2023-04-06T10:13:37;18.80;36.70
41644;DHT22;44236;48.098;11.582;2023-04-06T10:16:06;18.80;37.40
41644;DHT22;44236;48.098;11.582;2023-04-06T10:18:33;18.80;37.40
41644;DHT22;44236;48.098;11.582;2023-04-06T10:21:04;18.80;37.70
41644;DHT22;44236;48.098;11.582;2023-04-06T10:23:39;18.80;37.90
41644;DHT22;44236;48.098;11.582;2023-04-06T10:26:16;18.80;38.00
41644;DHT22;44236;48.098;11.582;2023-04-06T10:28:43;18.90;37.80
41644;DHT22;44236;48.098;11.582;2023-04-06T10:31:10;18.90;38.20
41644;DHT22;44236;48.098;11.582;2023-04-06T10:33:35;18.90;38.10
41644;DHT22;44236;48.098;11.582;2023-04-06T10:36:15;18.90;38.40
41644;DHT22;44236;48.098;11.582;2023-04-06T10:38:41;18.90;39.10
41644;DHT22;44236;48.098;11.582;2023-04-06T10:41:09;18.80;38.90
41644;DHT22;44236;48.098;11.582;2023-04-06T10:43:37;18.80;39.10
41644;DHT22;44236;48.098;11.582;2023-04-06T10:46:04;18.80;38.50
41644;DHT22;44236;48.098;11.582;2023-04-06T10:48:44;18.80;38.60
41644;DHT22;44236;48.098;11.582;2023-04-06T10:51:13;18.90;38.70
41644;DHT22;44236;48.098;11.582;2023-04-06T10:53:41;18.90;38.30
41644;DHT22;44236;48.098;11.582;2023-04-06T10:56:14;18.90;38.40
41644;DHT22;44236;48.098;11.582;2023-04-06T10:58:47;18.90;38.70
41644;DHT22;44236;48.098;11.582;2023-04-06T11:01:15;18.90;39.10
41644;DHT22;44236;48.098;11.582;2023-04-06T11:03:43;18.90;39.00
41644;DHT22;44236;48.098;11.582;2023-04-06T11:06:09;19.00;38.30
41644;DHT22;44236;48.098;11.582;2023-04-06T11:08:35;19.00;39.00
41644;DHT22;44236;48.098;11.582;2023-04-06T11:13:42;18.90;39.00
41644;DHT22;44236;48.098;11.582;2023-04-06T11:16:22;18.90;38.80
41644;DHT22;44236;48.098;11.582;2023-04-06T11:21:18;19.00;38.20
41644;DHT22;44236;48.098;11.582;2023-04-06T11:23:44;19.00;38.40
41644;DHT22;44236;48.098;11.582;2023-04-06T11:26:11;19.00;38.50
41644;DHT22;44236;48.098;11.582;2023-04-06T11:28:38;19.00;38.70
41644;DHT22;44236;48.098;11.582;2023-04-06T11:31:05;19.00;38.60
41644;DHT22;44236;48.098;11.582;2023-04-06T11:33:36;19.00;38.50
41644;DHT22;44236;48.098;11.582;2023-04-06T11:36:03;19.00;38.50
41644;DHT22;44236;48.098;11.582;2023-04-06T11:38:29;19.00;38.30
41644;DHT22;44236;48.098;11.582;2023-04-06T11:40:55;19.00;38.40
41644;DHT22;44236;48.098;11.582;2023-04-06T11:43:30;19.00;38.60
41644;DHT22;44236;48.098;11.582;2023-04-06T11:46:05;19.10;38.40
41644;DHT22;44236;48.098;11.582;2023-04-06T11:48:32;19.10;38.80
41644;DHT22;44236;48.098;11.582;2023-04-06T11:50:58;19.00;38.20
41644;DHT22;44236;48.098;11.582;2023-04-06T11:53:27;19.00;38.70
41644;DHT22;44236;48.098;11.582;2023-04-06T11:55:53;19.10;38.00
41644;DHT22;44236;48.098;11.582;2023-04-06T11:58:19;19.10;38.60
41644;DHT22;44236;48.098;11.582;2023-04-06T12:00:45;19.10;38.60
41644;DHT22;44236;48.098;11.582;2023-04-06T12:03:14;19.10;38.60
41644;DHT22;44236;48.098;11.582;2023-04-06T12:05:40;19.20;38.60
41644;DHT22;44236;48.098;11.582;2023-04-06T12:08:06;19.20;38.70
41644;DHT22;44236;48.098;11.582;2023-04-06T12:10:31;19.20;38.40
41644;DHT22;44236;48.098;11.582;2023-04-06T12:12:57;19.20;38.40
41644;DHT22;44236;48.098;11.582;2023-04-06T12:15:22;19.30;38.30
41644;DHT22;44236;48.098;11.582;2023-04-06T12:17:48;19.30;38.40
41644;DHT22;44236;48.098;11.582;2023-04-06T12:20:15;19.40;38.30
41644;DHT22;44236;48.098;11.582;2023-04-06T12:22:40;19.40;38.40
41644;DHT22;44236;48.098;11.582;2023-04-06T12:25:06;19.40;38.30
41644;DHT22;44236;48.098;11.582;2023-04-06T12:27:32;19.40;38.50
41644;DHT22;44236;48.098;11.582;2023-04-06T12:29:58;19.40;38.60
41644;DHT22;44236;48.098;11.582;2023-04-06T12:32:28;19.40;38.60
41644;DHT22;44236;48.098;11.582;2023-04-06T12:34:59;19.40;38.50
41644;DHT22;44236;48.098;11.582;2023-04-06T12:37:25;19.40;38.30
41644;DHT22;44236;48.098;11.582;2023-04-06T12:39:52;19.40;38.60
41644;DHT22;44236;48.098;11.582;2023-04-06T12:42:18;19.40;38.80
41644;DHT22;44236;48.098;11.582;2023-04-06T12:44:44;19.50;38.80
41644;DHT22;44236;48.098;11.582;2023-04-06T12:47:10;19.50;38.60
41644;DHT22;44236;48.098;11.582;2023-04-06T12:49:36;19.50;38.80
41644;DHT22;44236;48.098;11.582;2023-04-06T12:52:02;19.50;39.00
41644;DHT22;44236;48.098;11.582;2023-04-06T12:54:28;19.50;38.90
41644;DHT22;44236;48.098;11.582;2023-04-06T12:56:53;19.50;39.00
41644;DHT22;44236;48.098;11.582;2023-04-06T12:59:21;19.50;39.00
41644;DHT22;44236;48.098;11.582;2023-04-06T13:01:47;19.50;39.00
41644;DHT22;44236;48.098;11.582;2023-04-06T13:04:13;19.50;39.10
41644;DHT22;44236;48.098;11.582;2023-04-06T13:06:38;19.60;39.30
41644;DHT22;44236;48.098;11.582;2023-04-06T13:09:04;19.50;39.10
41644;DHT22;44236;48.098;11.582;2023-04-06T13:11:30;19.50;39.10
41644;DHT22;44236;48.098;11.582;2023-04-06T13:13:56;19.50;39.00
41644;DHT22;44236;48.098;11.582;2023-04-06T13:16:22;19.50;39.20
41644;DHT22;44236;48.098;11.582;2023-04-06T13:18:48;19.50;39.20
41644;DHT22;44236;48.098;11.582;2023-04-06T13:21:14;19.60;39.20
41644;DHT22;44236;48.098;11.582;2023-04-06T13:23:41;19.60;39.30
41644;DHT22;44236;48.098;11.582;2023-04-06T13:26:07;19.60;39.20
41644;DHT22;44236;48.098;11.582;2023-04-06T13:28:36;19.60;39.20
41644;DHT22;44236;48.098;11.582;2023-04-06T13:31:05;19.60;39.20
41644;DHT22;44236;48.098;11.582;2023-04-06T13:33:31;19.60;39.00
41644;DHT22;44236;48.098;11.582;2023-04-06T13:35:58;19.60;39.30
41644;DHT22;44236;48.098;11.582;2023-04-06T13:38:24;19.60;39.40
41644;DHT22;44236;48.098;11.582;2023-04-06T13:40:50;19.60;39.10
41644;DHT22;44236;48.098;11.582;2023-04-06T13:43:15;19.60;37.50
41644;DHT22;44236;48.098;11.582;2023-04-06T13:45:49;19.40;32.10
41644;DHT22;44236;48.098;11.582;2023-04-06T13:48:15;19.20;31.20
41644;DHT22;44236;48.098;11.582;2023-04-06T13:50:41;19.10;30.40
41644;DHT22;44236;48.098;11.582;2023-04-06T13:53:06;18.90;29.70
41644;DHT22;44236;48.098;11.582;2023-04-06T13:55:32;18.80;31.40
41644;DHT22;44236;48.098;11.582;2023-04-06T13:57:57;18.90;34.00
41644;DHT22;44236;48.098;11.582;2023-04-06T14:00:23;19.00;36.30
41644;DHT22;44236;48.098;11.582;2023-04-06T14:02:49;19.10;37.00
41644;DHT22;44236;48.098;11.582;2023-04-06T14:05:15;19.20;36.80
41644;DHT22;44236;48.098;11.582;2023-04-06T14:07:41;19.20;37.50
41644;DHT22;44236;48.098;11.582;2023-04-06T14:10:07;19.30;37.50
41644;DHT22;44236;48.098;11.582;2023-04-06T14:12:42;19.30;37.50
41644;DHT22;44236;48.098;11.582;2023-04-06T14:15:10;19.40;37.70
41644;DHT22;44236;48.098;11.582;2023-04-06T14:17:36;19.40;37.90
41644;DHT22;44236;48.098;11.582;2023-04-06T14:20:03;19.50;38.10
41644;DHT22;44236;48.098;11.582;2023-04-06T14:22:29;19.60;38.30
41644;DHT22;44236;48.098;11.582;2023-04-06T14:24:55;19.60;38.20
41644;DHT22;44236;48.098;11.582;2023-04-06T14:27:21;19.70;38.30
41644;DHT22;44236;48.098;11.582;2023-04-06T14:29:47;19.70;38.80
41644;DHT22;44236;48.098;11.582;2023-04-06T14:32:12;19.70;38.70
41644;DHT22;44236;48.098;11.582;2023-04-06T14:34:38;19.80;38.90
41644;DHT22;44236;48.098;11.582;2023-04-06T14:37:04;19.80;38.80
41644;DHT22;44236;48.098;11.582;2023-04-06T14:39:29;19.80;39.20
41644;DHT22;44236;48.098;11.582;2023-04-06T14:41:55;19.80;38.60
41644;DHT22;44236;48.098;11.582;2023-04-06T14:44:21;19.80;38.70
41644;DHT22;44236;48.098;11.582;2023-04-06T14:46:46;19.80;39.20
41644;DHT22;44236;48.098;11.582;2023-04-06T14:49:12;19.90;39.00
41644;DHT22;44236;48.098;11.582;2023-04-06T14:51:38;20.00;39.20
41644;DHT22;44236;48.098;11.582;2023-04-06T14:54:04;20.00;39.20
41644;DHT22;44236;48.098;11.582;2023-04-06T14:56:30;20.00;39.10
41644;DHT22;44236;48.098;11.582;2023-04-06T14:58:58;20.10;38.90
41644;DHT22;44236;48.098;11.582;2023-04-06T15:01:24;20.10;39.30
41644;DHT22;44236;48.098;11.582;2023-04-06T15:03:50;20.20;39.00
41644;DHT22;44236;48.098;11.582;2023-04-06T15:06:17;20.20;39.20
41644;DHT22;44236;48.098;11.582;2023-04-06T15:08:45;20.20;39.30
41644;DHT22;44236;48.098;11.582;2023-04-06T15:11:11;20.20;39.50
41644;DHT22;44236;48.098;11.582;2023-04-06T15:13:38;20.30;39.20
41644;DHT22;44236;48.098;11.582;2023-04-06T15:16:05;20.40;39.30
41644;DHT22;44236;48.098;11.582;2023-04-06T15:18:31;20.40;39.30
41644;DHT22;44236;48.098;11.582;2023-04-06T15:20:56;20.40;38.90
41644;DHT22;44236;48.098;11.582;2023-04-06T15:23:22;20.40;38.80